Sanya Phoenix International Airport
ZJSY : now visible

Airfield :











YOU CAN JOIN US ON...

 
LOGIN :

Register | Disclaimer

   EN    FR    IT 

 









Legend :    VFR   Marginal VFR   IFR   Intensive IFR   Very Intensive IFR
Visi :
Ceiling :
>= 8 km
>= 3000ft
5 to 8 km
1000 to 3000 ft
1500m to 5 km
500 to 1000 ft
800 to 1500m
200 to 500 ft
< 800m
< 200 ft
Symbols :   Thunderstorms  Fog  Heavy snow  Heavy precipitations  Wind > 20 kt






- Airport Elevation : 92 ft
- IATA code : SYX


ZJSY - Sanya Phoenix International

CURRENT METAR :
  • 271000Z 05006G11MPS 360V100 9999 SCT015 29/24 Q0998 NOSIG

EXPIRED METARs :
  • 270900Z 04003MPS 340V090 9999 FEW015 SCT050 29/25 Q0999 NOSIG
  • 270800Z 02002MPS 350V060 9999 FEW015 SCT050 28/25 Q0999 NOSIG

TAF AMD TAF ZJSY
Valid from the 27 at 00:00 until the 28 at 00:00 UTC


270424Z 2700/2724 03006G13MPS 9999 SCT020 TX30/2706Z TN23/2721Z
TEMPO 2704/2710 2000 TSRA SCT016 FEW025CB BKN040
BECMG 2715/2716 09010G18MPS
TEMPO 2716/2722 2000 TSRA SCT016 FEW025CB BKN033
ZJSA FIR / Asia



MET'MAP, your aeronautical weather chart ! - Copyright ORBIFLY December 2007 - Disclaimer

ORBIFLY MET'MAP TEAM :

Programming & Development : Alexandra Zaïnal
Original concept : Baudouin d'Aumeries
Technical & hardware support : Manuel Goepfert
Assistance : Marc-Olivier Méhu




SOURCES & CREDITS :

   NOAA       Earth
Advisory